sensor_id;sensor_type;location;lat;lon;timestamp;pressure;altitude;pressure_sealevel;temperature;humidity
17260;BME280;8746;49.230;9.220;2022-10-12T00:00:15;100706.75;;;11.14;92.13
17260;BME280;8746;49.230;9.220;2022-10-12T00:02:40;100703.38;;;11.09;91.42
17260;BME280;8746;49.230;9.220;2022-10-12T00:05:06;100702.22;;;10.89;91.95
17260;BME280;8746;49.230;9.220;2022-10-12T00:07:32;100701.78;;;11.03;92.06
17260;BME280;8746;49.230;9.220;2022-10-12T00:09:57;100702.72;;;11.02;92.42
17260;BME280;8746;49.230;9.220;2022-10-12T00:12:22;100708.03;;;11.01;92.46
17260;BME280;8746;49.230;9.220;2022-10-12T00:14:49;100701.16;;;10.95;92.85
17260;BME280;8746;49.230;9.220;2022-10-12T00:17:14;100695.06;;;10.93;92.88
17260;BME280;8746;49.230;9.220;2022-10-12T00:19:39;100695.91;;;10.94;93.05
17260;BME280;8746;49.230;9.220;2022-10-12T00:22:05;100696.63;;;11.00;92.16
17260;BME280;8746;49.230;9.220;2022-10-12T00:24:30;100694.06;;;10.97;92.27
17260;BME280;8746;49.230;9.220;2022-10-12T00:26:56;100693.44;;;10.89;91.85
17260;BME280;8746;49.230;9.220;2022-10-12T00:29:21;100698.72;;;10.89;91.55
17260;BME280;8746;49.230;9.220;2022-10-12T00:31:46;100702.63;;;10.76;91.87
17260;BME280;8746;49.230;9.220;2022-10-12T00:34:12;100702.81;;;10.69;92.35
17260;BME280;8746;49.230;9.220;2022-10-12T00:36:37;100711.63;;;10.68;92.06
17260;BME280;8746;49.230;9.220;2022-10-12T00:39:05;100705.44;;;10.69;91.23
17260;BME280;8746;49.230;9.220;2022-10-12T00:41:33;100704.78;;;10.61;91.40
17260;BME280;8746;49.230;9.220;2022-10-12T00:43:59;100705.78;;;10.57;92.11
17260;BME280;8746;49.230;9.220;2022-10-12T00:46:39;100704.25;;;10.48;92.48
17260;BME280;8746;49.230;9.220;2022-10-12T00:49:19;100705.91;;;10.52;92.45
17260;BME280;8746;49.230;9.220;2022-10-12T00:51:54;100699.06;;;10.45;92.21
17260;BME280;8746;49.230;9.220;2022-10-12T00:54:24;100705.13;;;10.49;92.16
17260;BME280;8746;49.230;9.220;2022-10-12T00:56:52;100706.19;;;10.41;92.62
17260;BME280;8746;49.230;9.220;2022-10-12T00:59:23;100696.38;;;10.47;92.27
17260;BME280;8746;49.230;9.220;2022-10-12T01:01:50;100706.94;;;10.47;91.83
17260;BME280;8746;49.230;9.220;2022-10-12T01:04:16;100697.47;;;10.39;91.58
17260;BME280;8746;49.230;9.220;2022-10-12T01:06:41;100703.88;;;10.29;91.86
17260;BME280;8746;49.230;9.220;2022-10-12T01:09:07;100703.09;;;10.25;92.04
17260;BME280;8746;49.230;9.220;2022-10-12T01:11:32;100706.13;;;10.10;93.16
17260;BME280;8746;49.230;9.220;2022-10-12T01:13:57;100703.59;;;10.05;93.26
17260;BME280;8746;49.230;9.220;2022-10-12T01:16:52;100702.00;;;9.98;93.23
17260;BME280;8746;49.230;9.220;2022-10-12T01:20:08;100705.59;;;9.95;93.65
17260;BME280;8746;49.230;9.220;2022-10-12T01:30:51;100703.63;;;9.69;94.10
17260;BME280;8746;49.230;9.220;2022-10-12T01:33:34;100693.88;;;9.73;94.12
17260;BME280;8746;49.230;9.220;2022-10-12T01:36:09;100693.88;;;9.73;93.57
17260;BME280;8746;49.230;9.220;2022-10-12T01:39:03;100693.31;;;9.60;94.19
17260;BME280;8746;49.230;9.220;2022-10-12T01:41:37;100693.19;;;9.65;94.04
17260;BME280;8746;49.230;9.220;2022-10-12T01:44:04;100693.31;;;9.60;94.30
17260;BME280;8746;49.230;9.220;2022-10-12T01:48:57;100693.50;;;9.52;94.69
17260;BME280;8746;49.230;9.220;2022-10-12T01:51:30;100701.59;;;9.44;94.93
17260;BME280;8746;49.230;9.220;2022-10-12T01:54:16;100697.81;;;9.55;94.25
17260;BME280;8746;49.230;9.220;2022-10-12T01:56:53;100700.47;;;9.55;93.80
17260;BME280;8746;49.230;9.220;2022-10-12T01:59:48;100697.06;;;9.50;93.88
17260;BME280;8746;49.230;9.220;2022-10-12T02:04:51;100709.59;;;9.38;93.92
17260;BME280;8746;49.230;9.220;2022-10-12T02:10:02;100699.56;;;9.56;92.97
17260;BME280;8746;49.230;9.220;2022-10-12T02:12:30;100708.66;;;9.42;93.97
17260;BME280;8746;49.230;9.220;2022-10-12T02:15:00;100706.06;;;9.41;94.32
17260;BME280;8746;49.230;9.220;2022-10-12T02:17:28;100704.28;;;9.41;94.47
17260;BME280;8746;49.230;9.220;2022-10-12T02:19:59;100700.91;;;9.36;94.82
17260;BME280;8746;49.230;9.220;2022-10-12T02:22:28;100694.34;;;9.54;93.65
17260;BME280;8746;49.230;9.220;2022-10-12T02:24:59;100685.00;;;9.39;93.96
17260;BME280;8746;49.230;9.220;2022-10-12T02:27:26;100678.63;;;9.50;93.84
17260;BME280;8746;49.230;9.220;2022-10-12T02:29:52;100681.38;;;9.45;94.31
17260;BME280;8746;49.230;9.220;2022-10-12T02:32:33;100679.53;;;9.49;93.53
17260;BME280;8746;49.230;9.220;2022-10-12T02:35:08;100679.88;;;9.33;94.78
17260;BME280;8746;49.230;9.220;2022-10-12T02:42:47;100681.28;;;9.10;95.36
17260;BME280;8746;49.230;9.220;2022-10-12T02:45:16;100684.59;;;9.19;95.25
17260;BME280;8746;49.230;9.220;2022-10-12T02:47:44;100672.09;;;9.28;95.04
17260;BME280;8746;49.230;9.220;2022-10-12T02:50:11;100687.88;;;9.28;95.18
17260;BME280;8746;49.230;9.220;2022-10-12T02:52:37;100687.13;;;9.25;94.81
17260;BME280;8746;49.230;9.220;2022-10-12T02:55:04;100682.00;;;9.17;95.28
17260;BME280;8746;49.230;9.220;2022-10-12T02:57:29;100672.72;;;9.38;94.58
17260;BME280;8746;49.230;9.220;2022-10-12T02:59:55;100679.63;;;9.44;94.04
17260;BME280;8746;49.230;9.220;2022-10-12T03:02:20;100678.78;;;9.43;94.63
17260;BME280;8746;49.230;9.220;2022-10-12T03:04:45;100677.25;;;9.33;94.17
17260;BME280;8746;49.230;9.220;2022-10-12T03:07:11;100685.44;;;9.21;94.90
17260;BME280;8746;49.230;9.220;2022-10-12T03:09:37;100684.44;;;9.26;95.56
17260;BME280;8746;49.230;9.220;2022-10-12T03:12:02;100677.53;;;9.21;95.56
17260;BME280;8746;49.230;9.220;2022-10-12T03:14:27;100682.88;;;9.18;95.43
17260;BME280;8746;49.230;9.220;2022-10-12T03:16:53;100688.16;;;9.16;95.31
17260;BME280;8746;49.230;9.220;2022-10-12T03:19:18;100684.53;;;9.22;95.12
17260;BME280;8746;49.230;9.220;2022-10-12T03:21:43;100686.28;;;9.23;95.10
17260;BME280;8746;49.230;9.220;2022-10-12T03:24:09;100688.88;;;9.24;95.17
17260;BME280;8746;49.230;9.220;2022-10-12T03:26:34;100681.25;;;9.12;95.18
17260;BME280;8746;49.230;9.220;2022-10-12T03:29:00;100682.56;;;8.92;95.93
17260;BME280;8746;49.230;9.220;2022-10-12T03:31:25;100677.13;;;9.00;95.54
17260;BME280;8746;49.230;9.220;2022-10-12T03:33:50;100688.28;;;9.11;95.23
17260;BME280;8746;49.230;9.220;2022-10-12T03:36:16;100689.19;;;9.09;94.87
17260;BME280;8746;49.230;9.220;2022-10-12T03:38:41;100689.69;;;8.86;95.49
17260;BME280;8746;49.230;9.220;2022-10-12T03:41:07;100695.03;;;8.82;95.94
17260;BME280;8746;49.230;9.220;2022-10-12T03:43:33;100686.44;;;8.74;96.23
17260;BME280;8746;49.230;9.220;2022-10-12T03:45:58;100690.94;;;8.69;96.10
17260;BME280;8746;49.230;9.220;2022-10-12T03:48:23;100682.91;;;8.75;96.26
17260;BME280;8746;49.230;9.220;2022-10-12T03:50:49;100683.75;;;8.77;95.86
17260;BME280;8746;49.230;9.220;2022-10-12T03:53:16;100680.31;;;8.74;96.33
17260;BME280;8746;49.230;9.220;2022-10-12T03:55:42;100686.44;;;8.74;96.73
17260;BME280;8746;49.230;9.220;2022-10-12T03:58:07;100678.63;;;8.70;96.11
17260;BME280;8746;49.230;9.220;2022-10-12T04:00:33;100680.84;;;8.90;95.99
17260;BME280;8746;49.230;9.220;2022-10-12T04:02:58;100681.00;;;8.84;95.88
17260;BME280;8746;49.230;9.220;2022-10-12T04:05:24;100690.34;;;8.97;95.41
17260;BME280;8746;49.230;9.220;2022-10-12T04:07:50;100689.72;;;8.84;95.54
17260;BME280;8746;49.230;9.220;2022-10-12T04:10:16;100686.31;;;8.80;95.85
17260;BME280;8746;49.230;9.220;2022-10-12T04:12:41;100686.44;;;8.74;95.45
17260;BME280;8746;49.230;9.220;2022-10-12T04:15:07;100684.56;;;8.79;95.49
17260;BME280;8746;49.230;9.220;2022-10-12T04:17:33;100691.81;;;8.68;96.00
17260;BME280;8746;49.230;9.220;2022-10-12T04:19:58;100693.81;;;8.57;95.77
17260;BME280;8746;49.230;9.220;2022-10-12T04:22:23;100693.78;;;8.58;95.63
17260;BME280;8746;49.230;9.220;2022-10-12T04:24:49;100690.22;;;8.61;95.62
17260;BME280;8746;49.230;9.220;2022-10-12T04:27:15;100689.41;;;8.59;95.77
17260;BME280;8746;49.230;9.220;2022-10-12T04:29:40;100697.38;;;8.53;96.37
17260;BME280;8746;49.230;9.220;2022-10-12T04:32:06;100698.94;;;8.63;96.01
17260;BME280;8746;49.230;9.220;2022-10-12T04:34:31;100698.53;;;8.83;95.69
17260;BME280;8746;49.230;9.220;2022-10-12T04:36:56;100697.59;;;8.87;94.58
17260;BME280;8746;49.230;9.220;2022-10-12T04:39:21;100703.53;;;8.95;94.41
17260;BME280;8746;49.230;9.220;2022-10-12T04:41:47;100704.75;;;8.79;94.54
17260;BME280;8746;49.230;9.220;2022-10-12T04:44:12;100708.19;;;8.82;93.95
17260;BME280;8746;49.230;9.220;2022-10-12T04:46:38;100698.75;;;8.72;94.83
17260;BME280;8746;49.230;9.220;2022-10-12T04:49:03;100705.06;;;8.63;95.25
17260;BME280;8746;49.230;9.220;2022-10-12T04:51:28;100699.66;;;8.71;95.23
17260;BME280;8746;49.230;9.220;2022-10-12T04:53:54;100703.66;;;8.91;94.71
17260;BME280;8746;49.230;9.220;2022-10-12T04:56:19;100707.22;;;8.87;94.22
17260;BME280;8746;49.230;9.220;2022-10-12T04:58:44;100712.69;;;8.76;94.31
17260;BME280;8746;49.230;9.220;2022-10-12T05:01:10;100714.44;;;8.78;95.01
17260;BME280;8746;49.230;9.220;2022-10-12T05:03:35;100709.84;;;8.88;94.31
17260;BME280;8746;49.230;9.220;2022-10-12T05:06:00;100715.91;;;8.92;94.49
17260;BME280;8746;49.230;9.220;2022-10-12T05:08:26;100709.09;;;8.81;94.79
17260;BME280;8746;49.230;9.220;2022-10-12T05:10:51;100713.91;;;8.59;95.43
17260;BME280;8746;49.230;9.220;2022-10-12T05:13:16;100715.41;;;8.73;94.84
17260;BME280;8746;49.230;9.220;2022-10-12T05:15:42;100708.81;;;8.94;95.04
17260;BME280;8746;49.230;9.220;2022-10-12T05:18:08;100709.72;;;8.93;94.26
17260;BME280;8746;49.230;9.220;2022-10-12T05:20:34;100716.72;;;8.94;94.48
17260;BME280;8746;49.230;9.220;2022-10-12T05:22:59;100720.47;;;8.82;94.88
17260;BME280;8746;49.230;9.220;2022-10-12T05:25:25;100709.72;;;8.93;94.58
17260;BME280;8746;49.230;9.220;2022-10-12T05:27:53;100720.38;;;8.88;94.51
17260;BME280;8746;49.230;9.220;2022-10-12T05:30:18;100714.47;;;8.75;94.56
17260;BME280;8746;49.230;9.220;2022-10-12T05:32:44;100712.81;;;8.71;94.93
17260;BME280;8746;49.230;9.220;2022-10-12T05:35:09;100712.47;;;8.87;95.06
17260;BME280;8746;49.230;9.220;2022-10-12T05:37:35;100714.34;;;8.81;94.89
17260;BME280;8746;49.230;9.220;2022-10-12T05:40:00;100721.09;;;8.95;94.69
17260;BME280;8746;49.230;9.220;2022-10-12T05:42:26;100710.47;;;9.00;94.48
17260;BME280;8746;49.230;9.220;2022-10-12T05:44:51;100716.81;;;8.89;94.59
17260;BME280;8746;49.230;9.220;2022-10-12T05:47:17;100713.91;;;9.03;94.70
17260;BME280;8746;49.230;9.220;2022-10-12T05:49:42;100718.69;;;8.84;94.91
17260;BME280;8746;49.230;9.220;2022-10-12T05:52:07;100713.66;;;8.72;94.93
17260;BME280;8746;49.230;9.220;2022-10-12T05:54:33;100716.13;;;8.79;95.29
17260;BME280;8746;49.230;9.220;2022-10-12T05:56:58;100724.09;;;8.76;95.22
17260;BME280;8746;49.230;9.220;2022-10-12T05:59:23;100721.53;;;8.73;95.07
17260;BME280;8746;49.230;9.220;2022-10-12T06:01:49;100723.34;;;8.71;95.60
17260;BME280;8746;49.230;9.220;2022-10-12T06:04:15;100727.47;;;8.83;94.74
17260;BME280;8746;49.230;9.220;2022-10-12T06:06:40;100717.09;;;8.75;94.79
17260;BME280;8746;49.230;9.220;2022-10-12T06:09:05;100714.31;;;8.85;94.91
17260;BME280;8746;49.230;9.220;2022-10-12T06:11:31;100723.97;;;8.82;94.98
17260;BME280;8746;49.230;9.220;2022-10-12T06:13:56;100727.72;;;8.71;95.33
17260;BME280;8746;49.230;9.220;2022-10-12T06:16:21;100727.41;;;8.86;95.36
17260;BME280;8746;49.230;9.220;2022-10-12T06:18:47;100724.69;;;8.91;95.23
17260;BME280;8746;49.230;9.220;2022-10-12T06:21:12;100721.72;;;9.06;94.49
17260;BME280;8746;49.230;9.220;2022-10-12T06:23:38;100721.72;;;9.06;93.87
17260;BME280;8746;49.230;9.220;2022-10-12T06:26:03;100725.28;;;9.04;94.08
17260;BME280;8746;49.230;9.220;2022-10-12T06:28:28;100724.53;;;8.98;94.25
17260;BME280;8746;49.230;9.220;2022-10-12T06:30:55;100725.25;;;9.05;94.18
17260;BME280;8746;49.230;9.220;2022-10-12T06:33:21;100726.03;;;9.10;94.04
17260;BME280;8746;49.230;9.220;2022-10-12T06:35:46;100723.41;;;9.10;93.93
17260;BME280;8746;49.230;9.220;2022-10-12T06:38:12;100732.59;;;9.32;93.48
17260;BME280;8746;49.230;9.220;2022-10-12T06:40:38;100724.66;;;9.33;93.15
17260;BME280;8746;49.230;9.220;2022-10-12T06:43:03;100741.47;;;9.27;93.31
17260;BME280;8746;49.230;9.220;2022-10-12T06:45:29;100732.25;;;9.45;92.21
17260;BME280;8746;49.230;9.220;2022-10-12T06:47:55;100729.03;;;9.34;92.52
17260;BME280;8746;49.230;9.220;2022-10-12T06:50:21;100725.41;;;9.38;92.75
17260;BME280;8746;49.230;9.220;2022-10-12T06:52:46;100721.47;;;9.58;91.94
17260;BME280;8746;49.230;9.220;2022-10-12T06:55:12;100728.63;;;9.51;92.25
17260;BME280;8746;49.230;9.220;2022-10-12T06:57:37;100728.53;;;9.56;91.83
17260;BME280;8746;49.230;9.220;2022-10-12T07:00:05;100724.06;;;9.59;92.26
17260;BME280;8746;49.230;9.220;2022-10-12T07:02:30;100733.50;;;9.68;92.54
17260;BME280;8746;49.230;9.220;2022-10-12T07:04:56;100727.63;;;9.93;90.87
17260;BME280;8746;49.230;9.220;2022-10-12T07:07:21;100723.16;;;9.97;90.28
17260;BME280;8746;49.230;9.220;2022-10-12T07:09:47;100728.41;;;9.97;91.08
17260;BME280;8746;49.230;9.220;2022-10-12T07:12:13;100727.78;;;9.87;90.22
17260;BME280;8746;49.230;9.220;2022-10-12T07:14:38;100722.66;;;10.17;90.14
17260;BME280;8746;49.230;9.220;2022-10-12T07:17:03;100721.09;;;10.08;89.88
17260;BME280;8746;49.230;9.220;2022-10-12T07:19:28;100728.56;;;9.90;90.39
17260;BME280;8746;49.230;9.220;2022-10-12T07:21:54;100734.09;;;10.16;90.34
17260;BME280;8746;49.230;9.220;2022-10-12T07:24:19;100729.53;;;9.88;90.78
17260;BME280;8746;49.230;9.220;2022-10-12T07:26:44;100726.06;;;9.86;90.99
17260;BME280;8746;49.230;9.220;2022-10-12T07:29:10;100734.63;;;9.94;91.09
17260;BME280;8746;49.230;9.220;2022-10-12T07:31:36;100729.91;;;10.08;90.52
17260;BME280;8746;49.230;9.220;2022-10-12T07:34:01;100733.00;;;10.24;90.49
17260;BME280;8746;49.230;9.220;2022-10-12T07:36:26;100735.06;;;10.11;89.75
17260;BME280;8746;49.230;9.220;2022-10-12T07:38:52;100731.22;;;10.25;90.72
17260;BME280;8746;49.230;9.220;2022-10-12T07:41:17;100735.53;;;10.29;89.93
17260;BME280;8746;49.230;9.220;2022-10-12T07:43:43;100735.53;;;10.29;89.02
17260;BME280;8746;49.230;9.220;2022-10-12T07:46:09;100737.53;;;10.54;88.74
17260;BME280;8746;49.230;9.220;2022-10-12T07:48:34;100731.81;;;10.69;88.65
17260;BME280;8746;49.230;9.220;2022-10-12T07:51:04;100725.56;;;11.03;87.26
17260;BME280;8746;49.230;9.220;2022-10-12T07:53:32;100724.47;;;10.81;87.90
17260;BME280;8746;49.230;9.220;2022-10-12T07:56:02;100725.19;;;10.54;88.27
17260;BME280;8746;49.230;9.220;2022-10-12T07:58:27;100719.72;;;10.61;88.72
17260;BME280;8746;49.230;9.220;2022-10-12T08:00:52;100732.31;;;10.51;89.42
17260;BME280;8746;49.230;9.220;2022-10-12T08:03:18;100721.22;;;10.71;89.26
17260;BME280;8746;49.230;9.220;2022-10-12T08:05:43;100722.69;;;10.81;88.74
17260;BME280;8746;49.230;9.220;2022-10-12T08:08:09;100718.09;;;10.88;88.84
17260;BME280;8746;49.230;9.220;2022-10-12T08:10:35;100714.28;;;10.98;87.60
17260;BME280;8746;49.230;9.220;2022-10-12T08:13:01;100722.50;;;11.17;87.29
17260;BME280;8746;49.230;9.220;2022-10-12T08:15:26;100715.38;;;11.21;87.66
17260;BME280;8746;49.230;9.220;2022-10-12T08:17:52;100725.09;;;11.47;86.92
17260;BME280;8746;49.230;9.220;2022-10-12T08:20:17;100717.94;;;11.22;86.93
17260;BME280;8746;49.230;9.220;2022-10-12T08:22:42;100714.50;;;11.49;86.79
17260;BME280;8746;49.230;9.220;2022-10-12T08:25:08;100719.19;;;11.11;87.28
17260;BME280;8746;49.230;9.220;2022-10-12T08:27:33;100718.47;;;11.05;88.00
17260;BME280;8746;49.230;9.220;2022-10-12T08:29:59;100714.28;;;11.27;88.38
17260;BME280;8746;49.230;9.220;2022-10-12T08:32:25;100719.94;;;11.16;87.53
17260;BME280;8746;49.230;9.220;2022-10-12T08:34:50;100710.84;;;11.25;88.27
17260;BME280;8746;49.230;9.220;2022-10-12T08:37:15;100715.03;;;11.02;88.40
17260;BME280;8746;49.230;9.220;2022-10-12T08:39:41;100718.38;;;11.09;88.60
17260;BME280;8746;49.230;9.220;2022-10-12T08:42:26;100714.59;;;11.17;88.71
17260;BME280;8746;49.230;9.220;2022-10-12T08:47:54;100708.41;;;11.47;87.24
17260;BME280;8746;49.230;9.220;2022-10-12T08:50:32;100700.91;;;11.61;87.39
17260;BME280;8746;49.230;9.220;2022-10-12T08:53:05;100704.34;;;11.63;86.67
17260;BME280;8746;49.230;9.220;2022-10-12T08:55:45;100699.03;;;11.92;86.76
17260;BME280;8746;49.230;9.220;2022-10-12T08:58:37;100705.25;;;12.16;85.90
17260;BME280;8746;49.230;9.220;2022-10-12T09:01:24;100707.63;;;12.49;84.55
17260;BME280;8746;49.230;9.220;2022-10-12T09:06:39;100701.91;;;13.09;82.80
17260;BME280;8746;49.230;9.220;2022-10-12T09:09:24;100710.97;;;13.03;82.29
17260;BME280;8746;49.230;9.220;2022-10-12T09:14:32;100709.16;;;13.27;81.91
17260;BME280;8746;49.230;9.220;2022-10-12T09:16:59;100699.25;;;13.55;80.63
17260;BME280;8746;49.230;9.220;2022-10-12T09:19:35;100700.56;;;13.67;80.41
17260;BME280;8746;49.230;9.220;2022-10-12T09:22:02;100702.66;;;14.01;80.03
17260;BME280;8746;49.230;9.220;2022-10-12T09:24:34;100694.09;;;14.15;79.58
17260;BME280;8746;49.230;9.220;2022-10-12T09:27:12;100696.03;;;14.32;79.03
17260;BME280;8746;49.230;9.220;2022-10-12T09:29:38;100694.91;;;14.38;78.38
17260;BME280;8746;49.230;9.220;2022-10-12T09:32:47;100690.19;;;14.24;78.93
17260;BME280;8746;49.230;9.220;2022-10-12T09:35:14;100692.31;;;14.16;78.95
17260;BME280;8746;49.230;9.220;2022-10-12T09:37:39;100691.97;;;14.23;78.69
17260;BME280;8746;49.230;9.220;2022-10-12T09:40:06;100696.03;;;14.32;78.44
17260;BME280;8746;49.230;9.220;2022-10-12T09:42:38;100689.84;;;14.92;76.92
17260;BME280;8746;49.230;9.220;2022-10-12T09:45:15;100693.34;;;15.31;75.82
17260;BME280;8746;49.230;9.220;2022-10-12T09:47:41;100683.72;;;15.65;74.34
17260;BME280;8746;49.230;9.220;2022-10-12T09:50:07;100684.16;;;16.10;72.17
17260;BME280;8746;49.230;9.220;2022-10-12T09:55:05;100690.38;;;16.61;70.82
17260;BME280;8746;49.230;9.220;2022-10-12T09:57:36;100682.88;;;16.68;69.67
17260;BME280;8746;49.230;9.220;2022-10-12T10:00:06;100678.41;;;17.18;69.62
17260;BME280;8746;49.230;9.220;2022-10-12T10:02:48;100668.91;;;17.44;67.78
17260;BME280;8746;49.230;9.220;2022-10-12T10:05:36;100672.59;;;17.58;67.76
17260;BME280;8746;49.230;9.220;2022-10-12T10:08:17;100669.91;;;18.04;67.04
17260;BME280;8746;49.230;9.220;2022-10-12T10:10:51;100672.28;;;18.54;64.75
17260;BME280;8746;49.230;9.220;2022-10-12T10:13:17;100673.44;;;18.50;64.37
17260;BME280;8746;49.230;9.220;2022-10-12T10:15:47;100669.78;;;18.80;63.27
17260;BME280;8746;49.230;9.220;2022-10-12T10:18:38;100668.44;;;18.58;64.40
17260;BME280;8746;49.230;9.220;2022-10-12T10:21:07;100680.72;;;18.17;65.36
17260;BME280;8746;49.230;9.220;2022-10-12T10:23:51;100674.56;;;18.60;64.69
17260;BME280;8746;49.230;9.220;2022-10-12T10:26:18;100674.34;;;18.63;64.32
17260;BME280;8746;49.230;9.220;2022-10-12T10:28:49;100680.09;;;18.71;64.58
17260;BME280;8746;49.230;9.220;2022-10-12T10:31:19;100676.03;;;18.06;64.50
17260;BME280;8746;49.230;9.220;2022-10-12T10:36:37;100681.50;;;19.06;63.23
17260;BME280;8746;49.230;9.220;2022-10-12T10:39:16;100674.44;;;18.18;64.91
17260;BME280;8746;49.230;9.220;2022-10-12T10:41:42;100672.94;;;17.98;66.05
17260;BME280;8746;49.230;9.220;2022-10-12T10:44:28;100673.41;;;17.28;67.99
17260;BME280;8746;49.230;9.220;2022-10-12T10:46:57;100678.09;;;17.71;67.53
17260;BME280;8746;49.230;9.220;2022-10-12T10:49:34;100680.81;;;18.16;67.08
17260;BME280;8746;49.230;9.220;2022-10-12T10:52:01;100684.09;;;17.28;68.26
17260;BME280;8746;49.230;9.220;2022-10-12T10:54:30;100666.34;;;17.43;68.43
17260;BME280;8746;49.230;9.220;2022-10-12T10:57:02;100672.97;;;17.20;69.01
17260;BME280;8746;49.230;9.220;2022-10-12T10:59:40;100669.97;;;17.10;70.41
17260;BME280;8746;49.230;9.220;2022-10-12T11:02:28;100676.00;;;16.64;70.85
17260;BME280;8746;49.230;9.220;2022-10-12T11:05:31;100670.22;;;16.56;72.10
17260;BME280;8746;49.230;9.220;2022-10-12T11:08:05;100675.41;;;16.75;71.21
17260;BME280;8746;49.230;9.220;2022-10-12T11:10:42;100670.06;;;16.59;72.31
17260;BME280;8746;49.230;9.220;2022-10-12T11:13:15;100667.69;;;16.70;70.98
17260;BME280;8746;49.230;9.220;2022-10-12T11:15:46;100662.19;;;16.73;71.38
17260;BME280;8746;49.230;9.220;2022-10-12T11:18:28;100651.72;;;16.70;72.38
17260;BME280;8746;49.230;9.220;2022-10-12T11:21:01;100656.31;;;16.50;72.60
17260;BME280;8746;49.230;9.220;2022-10-12T11:23:49;100663.41;;;16.83;72.12
17260;BME280;8746;49.230;9.220;2022-10-12T11:26:37;100653.44;;;16.87;71.81
17260;BME280;8746;49.230;9.220;2022-10-12T11:29:07;100658.69;;;16.55;72.61
17260;BME280;8746;49.230;9.220;2022-10-12T11:31:38;100651.38;;;16.76;73.29
17260;BME280;8746;49.230;9.220;2022-10-12T11:34:08;100657.03;;;16.70;72.65
17260;BME280;8746;49.230;9.220;2022-10-12T11:36:42;100652.13;;;16.78;71.66
17260;BME280;8746;49.230;9.220;2022-10-12T11:39:37;100646.88;;;16.61;72.62
17260;BME280;8746;49.230;9.220;2022-10-12T11:42:06;100640.19;;;16.86;72.35
17260;BME280;8746;49.230;9.220;2022-10-12T11:44:41;100634.13;;;17.00;72.30
17260;BME280;8746;49.230;9.220;2022-10-12T11:47:21;100636.00;;;17.13;71.21
17260;BME280;8746;49.230;9.220;2022-10-12T11:49:57;100636.09;;;17.12;71.74
17260;BME280;8746;49.230;9.220;2022-10-12T11:52:26;100632.03;;;16.89;72.13
17260;BME280;8746;49.230;9.220;2022-10-12T11:57:52;100624.97;;;16.88;72.68
17260;BME280;8746;49.230;9.220;2022-10-12T12:00:22;100618.47;;;17.09;72.58
17260;BME280;8746;49.230;9.220;2022-10-12T12:02:59;100621.38;;;17.21;71.40
17260;BME280;8746;49.230;9.220;2022-10-12T12:05:32;100615.13;;;17.06;72.30
17260;BME280;8746;49.230;9.220;2022-10-12T12:07:57;100621.38;;;16.89;71.78
17260;BME280;8746;49.230;9.220;2022-10-12T12:18:17;100609.06;;;17.34;70.69
17260;BME280;8746;49.230;9.220;2022-10-12T12:23:20;100599.34;;;17.33;70.25
17260;BME280;8746;49.230;9.220;2022-10-12T12:26:05;100602.19;;;17.30;71.56
17260;BME280;8746;49.230;9.220;2022-10-12T12:28:43;100599.06;;;17.38;71.23
17260;BME280;8746;49.230;9.220;2022-10-12T12:33:47;100600.84;;;17.84;69.29
17260;BME280;8746;49.230;9.220;2022-10-12T12:36:27;100596.06;;;17.89;68.68
17260;BME280;8746;49.230;9.220;2022-10-12T12:38:53;100583.78;;;17.86;70.07
17260;BME280;8746;49.230;9.220;2022-10-12T12:41:21;100590.34;;;17.81;69.66
17260;BME280;8746;49.230;9.220;2022-10-12T12:46:21;100585.09;;;17.79;68.76
17260;BME280;8746;49.230;9.220;2022-10-12T12:54:06;100580.94;;;17.59;69.80
17260;BME280;8746;49.230;9.220;2022-10-12T13:19:09;100565.66;;;17.46;69.49
17260;BME280;8746;49.230;9.220;2022-10-12T13:21:38;100564.34;;;17.54;69.64
17260;BME280;8746;49.230;9.220;2022-10-12T13:26:30;100557.97;;;17.26;70.83
17260;BME280;8746;49.230;9.220;2022-10-12T13:29:05;100557.66;;;17.16;71.63
17260;BME280;8746;49.230;9.220;2022-10-12T13:31:37;100551.91;;;17.38;70.85
17260;BME280;8746;49.230;9.220;2022-10-12T13:34:11;100545.53;;;17.41;70.69
17260;BME280;8746;49.230;9.220;2022-10-12T13:37:00;100544.69;;;17.40;69.25
17260;BME280;8746;49.230;9.220;2022-10-12T13:39:26;100544.69;;;17.40;70.65
17260;BME280;8746;49.230;9.220;2022-10-12T13:41:55;100540.56;;;17.51;70.79
17260;BME280;8746;49.230;9.220;2022-10-12T13:44:24;100541.28;;;17.22;69.90
17260;BME280;8746;49.230;9.220;2022-10-12T13:46:54;100548.25;;;17.25;71.42
17260;BME280;8746;49.230;9.220;2022-10-12T13:49:24;100547.16;;;17.29;70.77
17260;BME280;8746;49.230;9.220;2022-10-12T13:51:59;100546.31;;;17.43;70.11
17260;BME280;8746;49.230;9.220;2022-10-12T13:54:25;100540.25;;;17.25;70.32
17260;BME280;8746;49.230;9.220;2022-10-12T13:56:55;100544.31;;;17.16;72.01
17260;BME280;8746;49.230;9.220;2022-10-12T13:59:24;100542.56;;;17.31;71.76
17260;BME280;8746;49.230;9.220;2022-10-12T14:02:00;100546.41;;;17.41;70.31
17260;BME280;8746;49.230;9.220;2022-10-12T14:04:31;100548.50;;;17.36;71.05
17260;BME280;8746;49.230;9.220;2022-10-12T14:07:10;100545.22;;;17.31;72.13
17260;BME280;8746;49.230;9.220;2022-10-12T14:09:42;100546.28;;;17.28;71.33
17260;BME280;8746;49.230;9.220;2022-10-12T14:12:09;100539.81;;;17.33;71.82
17260;BME280;8746;49.230;9.220;2022-10-12T14:14:36;100540.44;;;17.22;71.30
17260;BME280;8746;49.230;9.220;2022-10-12T14:17:02;100537.59;;;16.94;71.18
17260;BME280;8746;49.230;9.220;2022-10-12T14:19:48;100531.19;;;17.13;71.12
17260;BME280;8746;49.230;9.220;2022-10-12T14:22:30;100528.78;;;17.08;72.65
17260;BME280;8746;49.230;9.220;2022-10-12T14:25:19;100531.13;;;16.98;72.82
17260;BME280;8746;49.230;9.220;2022-10-12T14:27:45;100530.94;;;17.18;71.54
17260;BME280;8746;49.230;9.220;2022-10-12T14:32:50;100536.47;;;17.29;71.98
17260;BME280;8746;49.230;9.220;2022-10-12T14:37:42;100526.34;;;17.20;70.53
17260;BME280;8746;49.230;9.220;2022-10-12T14:43:03;100520.59;;;17.11;70.58
17260;BME280;8746;49.230;9.220;2022-10-12T14:45:30;100522.19;;;17.30;69.49
17260;BME280;8746;49.230;9.220;2022-10-12T14:47:56;100524.25;;;17.25;69.84